sensor_id;sensor_type;location;lat;lon;timestamp;temperature;humidity
24103;DHT22;12278;53.058;9.028;2023-07-13T00:03:12;16.20;99.90
24103;DHT22;12278;53.058;9.028;2023-07-13T00:07:13;16.20;99.90
24103;DHT22;12278;53.058;9.028;2023-07-13T00:11:15;16.10;99.90
24103;DHT22;12278;53.058;9.028;2023-07-13T00:15:22;16.00;99.90
24103;DHT22;12278;53.058;9.028;2023-07-13T00:19:23;15.90;99.90
24103;DHT22;12278;53.058;9.028;2023-07-13T00:23:24;15.90;99.90
24103;DHT22;12278;53.058;9.028;2023-07-13T00:27:24;15.80;99.90
24103;DHT22;12278;53.058;9.028;2023-07-13T00:31:27;15.90;99.90
24103;DHT22;12278;53.058;9.028;2023-07-13T00:35:31;15.90;99.90
24103;DHT22;12278;53.058;9.028;2023-07-13T00:39:33;15.80;99.90
24103;DHT22;12278;53.058;9.028;2023-07-13T00:43:34;15.80;99.90
24103;DHT22;12278;53.058;9.028;2023-07-13T00:47:34;15.70;99.90
24103;DHT22;12278;53.058;9.028;2023-07-13T00:51:48;15.70;99.90
24103;DHT22;12278;53.058;9.028;2023-07-13T00:55:50;15.70;99.90
24103;DHT22;12278;53.058;9.028;2023-07-13T00:59:57;15.70;99.90
24103;DHT22;12278;53.058;9.028;2023-07-13T01:03:58;15.70;99.90
24103;DHT22;12278;53.058;9.028;2023-07-13T01:08:01;15.50;99.90
24103;DHT22;12278;53.058;9.028;2023-07-13T01:12:02;15.30;99.90
24103;DHT22;12278;53.058;9.028;2023-07-13T01:20:30;15.50;99.90
24103;DHT22;12278;53.058;9.028;2023-07-13T01:24:33;15.50;99.90
24103;DHT22;12278;53.058;9.028;2023-07-13T01:28:34;15.50;99.90
24103;DHT22;12278;53.058;9.028;2023-07-13T01:32:37;15.30;99.90
24103;DHT22;12278;53.058;9.028;2023-07-13T01:36:38;15.40;99.90
24103;DHT22;12278;53.058;9.028;2023-07-13T01:40:39;15.30;99.90
24103;DHT22;12278;53.058;9.028;2023-07-13T01:44:39;15.40;99.90
24103;DHT22;12278;53.058;9.028;2023-07-13T01:48:40;15.40;99.90
24103;DHT22;12278;53.058;9.028;2023-07-13T01:52:41;15.40;99.90
24103;DHT22;12278;53.058;9.028;2023-07-13T01:56:41;15.40;99.90
24103;DHT22;12278;53.058;9.028;2023-07-13T02:00:42;15.40;99.90
24103;DHT22;12278;53.058;9.028;2023-07-13T02:04:43;15.30;99.90
24103;DHT22;12278;53.058;9.028;2023-07-13T02:08:43;15.20;99.90
24103;DHT22;12278;53.058;9.028;2023-07-13T02:12:45;15.20;99.90
24103;DHT22;12278;53.058;9.028;2023-07-13T02:16:50;15.00;99.90
24103;DHT22;12278;53.058;9.028;2023-07-13T02:20:51;15.10;99.90
24103;DHT22;12278;53.058;9.028;2023-07-13T02:24:52;15.10;99.90
24103;DHT22;12278;53.058;9.028;2023-07-13T02:28:53;15.20;99.90
24103;DHT22;12278;53.058;9.028;2023-07-13T02:32:53;15.00;99.90
24103;DHT22;12278;53.058;9.028;2023-07-13T02:36:54;15.00;99.90
24103;DHT22;12278;53.058;9.028;2023-07-13T02:40:54;15.10;99.90
24103;DHT22;12278;53.058;9.028;2023-07-13T02:44:55;15.10;99.90
24103;DHT22;12278;53.058;9.028;2023-07-13T02:48:56;15.10;99.90
24103;DHT22;12278;53.058;9.028;2023-07-13T02:52:56;15.10;99.90
24103;DHT22;12278;53.058;9.028;2023-07-13T02:56:58;15.10;99.90
24103;DHT22;12278;53.058;9.028;2023-07-13T03:00:59;15.10;99.90
24103;DHT22;12278;53.058;9.028;2023-07-13T03:05:00;14.90;99.90
24103;DHT22;12278;53.058;9.028;2023-07-13T03:09:01;14.80;99.90
24103;DHT22;12278;53.058;9.028;2023-07-13T03:13:01;14.90;99.90
24103;DHT22;12278;53.058;9.028;2023-07-13T03:17:02;15.00;99.90
24103;DHT22;12278;53.058;9.028;2023-07-13T03:21:03;15.00;99.90
24103;DHT22;12278;53.058;9.028;2023-07-13T03:25:05;14.90;99.90
24103;DHT22;12278;53.058;9.028;2023-07-13T03:29:06;15.00;99.90
24103;DHT22;12278;53.058;9.028;2023-07-13T03:33:07;14.70;99.90
24103;DHT22;12278;53.058;9.028;2023-07-13T03:37:07;15.00;99.90
24103;DHT22;12278;53.058;9.028;2023-07-13T03:41:08;15.10;99.90
24103;DHT22;12278;53.058;9.028;2023-07-13T03:45:09;15.00;99.90
24103;DHT22;12278;53.058;9.028;2023-07-13T03:49:11;15.10;99.90
24103;DHT22;12278;53.058;9.028;2023-07-13T03:53:12;15.10;99.90
24103;DHT22;12278;53.058;9.028;2023-07-13T03:57:12;15.10;99.90
24103;DHT22;12278;53.058;9.028;2023-07-13T04:01:14;15.10;99.90
24103;DHT22;12278;53.058;9.028;2023-07-13T04:05:16;15.20;99.90
24103;DHT22;12278;53.058;9.028;2023-07-13T04:09:17;15.20;99.90
24103;DHT22;12278;53.058;9.028;2023-07-13T04:13:17;15.10;99.90
24103;DHT22;12278;53.058;9.028;2023-07-13T04:17:18;15.00;99.90
24103;DHT22;12278;53.058;9.028;2023-07-13T04:21:19;15.10;99.90
24103;DHT22;12278;53.058;9.028;2023-07-13T04:25:21;15.20;99.90
24103;DHT22;12278;53.058;9.028;2023-07-13T04:29:22;15.20;99.90
24103;DHT22;12278;53.058;9.028;2023-07-13T04:33:22;15.30;99.90
24103;DHT22;12278;53.058;9.028;2023-07-13T04:37:23;15.40;99.90
24103;DHT22;12278;53.058;9.028;2023-07-13T04:41:24;15.40;99.90
24103;DHT22;12278;53.058;9.028;2023-07-13T04:45:25;15.50;99.90
24103;DHT22;12278;53.058;9.028;2023-07-13T04:49:27;15.50;99.90
24103;DHT22;12278;53.058;9.028;2023-07-13T04:53:29;15.50;99.90
24103;DHT22;12278;53.058;9.028;2023-07-13T04:57:30;15.50;99.90
24103;DHT22;12278;53.058;9.028;2023-07-13T05:01:30;15.50;99.90
24103;DHT22;12278;53.058;9.028;2023-07-13T05:05:31;15.60;99.90
24103;DHT22;12278;53.058;9.028;2023-07-13T05:09:32;15.60;99.90
24103;DHT22;12278;53.058;9.028;2023-07-13T05:13:33;15.60;99.90
24103;DHT22;12278;53.058;9.028;2023-07-13T05:17:34;15.80;99.90
24103;DHT22;12278;53.058;9.028;2023-07-13T05:21:35;15.80;99.90
24103;DHT22;12278;53.058;9.028;2023-07-13T05:25:35;15.90;99.90
24103;DHT22;12278;53.058;9.028;2023-07-13T05:29:36;16.00;99.90
24103;DHT22;12278;53.058;9.028;2023-07-13T05:33:37;16.00;99.90
24103;DHT22;12278;53.058;9.028;2023-07-13T05:37:38;15.90;99.90
24103;DHT22;12278;53.058;9.028;2023-07-13T05:41:39;16.00;99.90
24103;DHT22;12278;53.058;9.028;2023-07-13T05:45:40;16.10;99.90
24103;DHT22;12278;53.058;9.028;2023-07-13T05:49:41;16.40;99.90
24103;DHT22;12278;53.058;9.028;2023-07-13T05:53:42;16.60;99.90
24103;DHT22;12278;53.058;9.028;2023-07-13T05:57:42;16.60;99.90
24103;DHT22;12278;53.058;9.028;2023-07-13T06:01:43;16.50;99.90
24103;DHT22;12278;53.058;9.028;2023-07-13T06:05:44;16.50;99.90
24103;DHT22;12278;53.058;9.028;2023-07-13T06:09:44;16.60;99.90
24103;DHT22;12278;53.058;9.028;2023-07-13T06:13:45;16.50;99.90
24103;DHT22;12278;53.058;9.028;2023-07-13T06:17:46;16.40;99.90
24103;DHT22;12278;53.058;9.028;2023-07-13T06:21:47;16.40;99.90
24103;DHT22;12278;53.058;9.028;2023-07-13T06:25:47;16.40;99.90
24103;DHT22;12278;53.058;9.028;2023-07-13T06:29:48;16.60;99.90
24103;DHT22;12278;53.058;9.028;2023-07-13T06:33:48;16.70;99.90
24103;DHT22;12278;53.058;9.028;2023-07-13T06:37:49;16.90;99.90
24103;DHT22;12278;53.058;9.028;2023-07-13T06:41:50;17.10;99.90
24103;DHT22;12278;53.058;9.028;2023-07-13T06:45:51;17.50;99.90
24103;DHT22;12278;53.058;9.028;2023-07-13T06:49:52;17.80;99.90
24103;DHT22;12278;53.058;9.028;2023-07-13T06:53:52;17.90;99.90
24103;DHT22;12278;53.058;9.028;2023-07-13T06:57:53;17.90;99.90
24103;DHT22;12278;53.058;9.028;2023-07-13T07:01:54;17.80;99.90
24103;DHT22;12278;53.058;9.028;2023-07-13T07:06:00;18.10;99.90
24103;DHT22;12278;53.058;9.028;2023-07-13T07:10:01;18.00;99.90
24103;DHT22;12278;53.058;9.028;2023-07-13T07:14:01;18.30;99.90
24103;DHT22;12278;53.058;9.028;2023-07-13T07:18:02;18.50;99.90
24103;DHT22;12278;53.058;9.028;2023-07-13T07:22:03;18.80;99.90
24103;DHT22;12278;53.058;9.028;2023-07-13T07:26:04;18.90;99.90
24103;DHT22;12278;53.058;9.028;2023-07-13T07:30:05;19.10;99.90
24103;DHT22;12278;53.058;9.028;2023-07-13T07:34:06;19.10;99.90
24103;DHT22;12278;53.058;9.028;2023-07-13T07:38:07;19.20;99.90
24103;DHT22;12278;53.058;9.028;2023-07-13T07:42:09;19.20;99.90
24103;DHT22;12278;53.058;9.028;2023-07-13T07:46:10;19.30;99.90
24103;DHT22;12278;53.058;9.028;2023-07-13T07:50:14;20.10;99.90
24103;DHT22;12278;53.058;9.028;2023-07-13T07:54:15;20.20;99.90
24103;DHT22;12278;53.058;9.028;2023-07-13T07:58:16;20.20;99.90
24103;DHT22;12278;53.058;9.028;2023-07-13T08:02:17;20.40;99.90
24103;DHT22;12278;53.058;9.028;2023-07-13T08:06:18;20.50;99.90
24103;DHT22;12278;53.058;9.028;2023-07-13T08:10:20;20.70;99.90
24103;DHT22;12278;53.058;9.028;2023-07-13T08:14:21;20.40;99.90
24103;DHT22;12278;53.058;9.028;2023-07-13T08:18:21;20.20;99.90
24103;DHT22;12278;53.058;9.028;2023-07-13T08:22:22;20.10;99.90
24103;DHT22;12278;53.058;9.028;2023-07-13T08:26:23;20.30;99.90
24103;DHT22;12278;53.058;9.028;2023-07-13T08:30:24;20.00;99.90
24103;DHT22;12278;53.058;9.028;2023-07-13T08:34:24;20.40;99.90
24103;DHT22;12278;53.058;9.028;2023-07-13T08:38:25;20.60;99.90
24103;DHT22;12278;53.058;9.028;2023-07-13T08:42:58;20.80;99.90
24103;DHT22;12278;53.058;9.028;2023-07-13T08:46:59;21.20;99.90
24103;DHT22;12278;53.058;9.028;2023-07-13T08:55:25;21.50;99.90
24103;DHT22;12278;53.058;9.028;2023-07-13T08:59:31;21.50;99.90
24103;DHT22;12278;53.058;9.028;2023-07-13T09:03:41;22.10;99.90
24103;DHT22;12278;53.058;9.028;2023-07-13T09:08:26;21.50;99.90
24103;DHT22;12278;53.058;9.028;2023-07-13T09:16:51;21.40;99.90
24103;DHT22;12278;53.058;9.028;2023-07-13T09:20:58;21.70;99.90
24103;DHT22;12278;53.058;9.028;2023-07-13T09:25:06;21.60;99.90
24103;DHT22;12278;53.058;9.028;2023-07-13T09:29:26;21.60;99.90
24103;DHT22;12278;53.058;9.028;2023-07-13T09:33:28;21.70;99.90
24103;DHT22;12278;53.058;9.028;2023-07-13T09:37:31;21.40;99.90
24103;DHT22;12278;53.058;9.028;2023-07-13T09:45:57;21.80;99.90
24103;DHT22;12278;53.058;9.028;2023-07-13T09:50:00;22.30;99.90
24103;DHT22;12278;53.058;9.028;2023-07-13T09:54:01;22.40;99.90
24103;DHT22;12278;53.058;9.028;2023-07-13T09:58:24;22.50;99.90
24103;DHT22;12278;53.058;9.028;2023-07-13T10:02:33;22.20;99.90
24103;DHT22;12278;53.058;9.028;2023-07-13T10:06:34;21.80;99.90
24103;DHT22;12278;53.058;9.028;2023-07-13T10:10:35;21.40;99.90
24103;DHT22;12278;53.058;9.028;2023-07-13T10:14:36;22.30;99.90
24103;DHT22;12278;53.058;9.028;2023-07-13T10:18:53;22.80;99.90
24103;DHT22;12278;53.058;9.028;2023-07-13T10:23:04;22.80;99.90
24103;DHT22;12278;53.058;9.028;2023-07-13T10:27:19;22.20;99.90
24103;DHT22;12278;53.058;9.028;2023-07-13T10:31:21;23.10;99.90
24103;DHT22;12278;53.058;9.028;2023-07-13T10:35:23;23.20;99.90
24103;DHT22;12278;53.058;9.028;2023-07-13T10:39:28;22.40;99.90
24103;DHT22;12278;53.058;9.028;2023-07-13T10:43:51;21.90;99.90
24103;DHT22;12278;53.058;9.028;2023-07-13T10:47:56;21.60;99.90
24103;DHT22;12278;53.058;9.028;2023-07-13T10:51:57;21.80;99.90
24103;DHT22;12278;53.058;9.028;2023-07-13T10:56:01;22.10;99.90
24103;DHT22;12278;53.058;9.028;2023-07-13T11:00:15;21.80;99.90
24103;DHT22;12278;53.058;9.028;2023-07-13T11:04:18;21.40;99.90
24103;DHT22;12278;53.058;9.028;2023-07-13T11:08:35;20.90;99.90
24103;DHT22;12278;53.058;9.028;2023-07-13T11:12:53;19.80;99.90
24103;DHT22;12278;53.058;9.028;2023-07-13T11:16:56;19.10;99.90
24103;DHT22;12278;53.058;9.028;2023-07-13T11:21:14;18.80;99.90
24103;DHT22;12278;53.058;9.028;2023-07-13T11:25:25;18.60;99.90
24103;DHT22;12278;53.058;9.028;2023-07-13T11:29:36;18.10;99.90
24103;DHT22;12278;53.058;9.028;2023-07-13T11:37:41;17.50;99.90
24103;DHT22;12278;53.058;9.028;2023-07-13T11:41:50;17.10;99.90
24103;DHT22;12278;53.058;9.028;2023-07-13T11:45:52;17.10;99.90
24103;DHT22;12278;53.058;9.028;2023-07-13T11:49:54;17.00;99.90
24103;DHT22;12278;53.058;9.028;2023-07-13T11:54:20;16.80;99.90
24103;DHT22;12278;53.058;9.028;2023-07-13T11:58:24;16.80;99.90
24103;DHT22;12278;53.058;9.028;2023-07-13T12:02:27;16.90;99.90
24103;DHT22;12278;53.058;9.028;2023-07-13T12:06:29;17.10;99.90
24103;DHT22;12278;53.058;9.028;2023-07-13T12:10:31;17.00;99.90
24103;DHT22;12278;53.058;9.028;2023-07-13T12:14:33;17.00;99.90
24103;DHT22;12278;53.058;9.028;2023-07-13T12:18:34;17.00;99.90
24103;DHT22;12278;53.058;9.028;2023-07-13T12:22:35;16.90;99.90
24103;DHT22;12278;53.058;9.028;2023-07-13T12:26:38;16.80;99.90
24103;DHT22;12278;53.058;9.028;2023-07-13T12:30:39;16.60;99.90
24103;DHT22;12278;53.058;9.028;2023-07-13T12:34:52;16.30;99.90
24103;DHT22;12278;53.058;9.028;2023-07-13T12:38:53;16.30;99.90
24103;DHT22;12278;53.058;9.028;2023-07-13T12:42:54;16.10;99.90
24103;DHT22;12278;53.058;9.028;2023-07-13T12:47:02;16.00;99.90
24103;DHT22;12278;53.058;9.028;2023-07-13T12:51:10;16.40;99.90
24103;DHT22;12278;53.058;9.028;2023-07-13T12:55:14;16.30;99.90
24103;DHT22;12278;53.058;9.028;2023-07-13T12:59:22;16.30;99.90
24103;DHT22;12278;53.058;9.028;2023-07-13T13:03:40;16.40;99.90
24103;DHT22;12278;53.058;9.028;2023-07-13T13:07:41;16.60;99.90
24103;DHT22;12278;53.058;9.028;2023-07-13T13:11:42;16.90;99.90
24103;DHT22;12278;53.058;9.028;2023-07-13T13:15:43;17.50;99.90
24103;DHT22;12278;53.058;9.028;2023-07-13T13:19:44;17.80;99.90
24103;DHT22;12278;53.058;9.028;2023-07-13T13:23:45;18.20;99.90
24103;DHT22;12278;53.058;9.028;2023-07-13T13:27:46;18.80;99.90
24103;DHT22;12278;53.058;9.028;2023-07-13T13:31:47;19.80;99.90
24103;DHT22;12278;53.058;9.028;2023-07-13T13:35:48;20.80;99.90
24103;DHT22;12278;53.058;9.028;2023-07-13T13:39:50;20.40;99.90
24103;DHT22;12278;53.058;9.028;2023-07-13T13:43:52;21.30;99.90
24103;DHT22;12278;53.058;9.028;2023-07-13T13:47:52;20.00;99.90
24103;DHT22;12278;53.058;9.028;2023-07-13T13:51:54;19.60;99.90
24103;DHT22;12278;53.058;9.028;2023-07-13T13:55:55;19.60;99.90
24103;DHT22;12278;53.058;9.028;2023-07-13T13:59:56;19.20;99.90
24103;DHT22;12278;53.058;9.028;2023-07-13T14:03:57;19.30;99.90
24103;DHT22;12278;53.058;9.028;2023-07-13T14:07:59;19.10;99.90
24103;DHT22;12278;53.058;9.028;2023-07-13T14:12:00;19.30;99.90
24103;DHT22;12278;53.058;9.028;2023-07-13T14:16:01;19.30;99.90
24103;DHT22;12278;53.058;9.028;2023-07-13T14:20:01;19.20;99.90
24103;DHT22;12278;53.058;9.028;2023-07-13T14:24:05;19.40;99.90
24103;DHT22;12278;53.058;9.028;2023-07-13T14:28:23;20.10;99.90
24103;DHT22;12278;53.058;9.028;2023-07-13T14:32:24;21.10;99.90
24103;DHT22;12278;53.058;9.028;2023-07-13T14:36:33;20.80;99.90
24103;DHT22;12278;53.058;9.028;2023-07-13T14:40:34;21.20;99.90
24103;DHT22;12278;53.058;9.028;2023-07-13T14:44:38;22.60;99.90
24103;DHT22;12278;53.058;9.028;2023-07-13T14:48:40;23.80;99.90
24103;DHT22;12278;53.058;9.028;2023-07-13T14:52:43;24.30;99.90
24103;DHT22;12278;53.058;9.028;2023-07-13T14:56:44;24.80;99.90
24103;DHT22;12278;53.058;9.028;2023-07-13T15:00:45;25.40;99.90
24103;DHT22;12278;53.058;9.028;2023-07-13T15:04:47;25.10;99.90
24103;DHT22;12278;53.058;9.028;2023-07-13T15:08:47;25.10;99.90
24103;DHT22;12278;53.058;9.028;2023-07-13T15:12:51;25.80;99.90
24103;DHT22;12278;53.058;9.028;2023-07-13T15:16:54;27.40;99.90
24103;DHT22;12278;53.058;9.028;2023-07-13T15:20:56;27.70;98.60
24103;DHT22;12278;53.058;9.028;2023-07-13T15:24:58;24.80;99.90
24103;DHT22;12278;53.058;9.028;2023-07-13T15:29:00;22.30;99.90
24103;DHT22;12278;53.058;9.028;2023-07-13T15:33:12;21.40;99.90
24103;DHT22;12278;53.058;9.028;2023-07-13T15:37:15;20.60;99.90
24103;DHT22;12278;53.058;9.028;2023-07-13T15:41:25;19.20;99.90
24103;DHT22;12278;53.058;9.028;2023-07-13T15:45:26;18.60;99.90
24103;DHT22;12278;53.058;9.028;2023-07-13T15:49:27;18.20;99.90
24103;DHT22;12278;53.058;9.028;2023-07-13T15:53:33;18.00;99.90
24103;DHT22;12278;53.058;9.028;2023-07-13T15:57:34;17.70;99.90
24103;DHT22;12278;53.058;9.028;2023-07-13T16:01:35;17.60;99.90
24103;DHT22;12278;53.058;9.028;2023-07-13T16:05:37;17.50;99.90
24103;DHT22;12278;53.058;9.028;2023-07-13T16:09:39;17.50;99.90
24103;DHT22;12278;53.058;9.028;2023-07-13T16:13:40;16.90;99.90
24103;DHT22;12278;53.058;9.028;2023-07-13T16:17:42;16.80;99.90
24103;DHT22;12278;53.058;9.028;2023-07-13T16:21:48;16.90;99.90
24103;DHT22;12278;53.058;9.028;2023-07-13T16:25:50;16.50;99.90
24103;DHT22;12278;53.058;9.028;2023-07-13T16:29:52;16.70;99.90
24103;DHT22;12278;53.058;9.028;2023-07-13T16:33:53;16.40;99.90
24103;DHT22;12278;53.058;9.028;2023-07-13T16:37:54;16.40;99.90
24103;DHT22;12278;53.058;9.028;2023-07-13T16:41:59;16.40;99.90
24103;DHT22;12278;53.058;9.028;2023-07-13T16:46:00;16.70;99.90
24103;DHT22;12278;53.058;9.028;2023-07-13T16:50:16;16.80;99.90
24103;DHT22;12278;53.058;9.028;2023-07-13T16:54:18;16.90;99.90
24103;DHT22;12278;53.058;9.028;2023-07-13T16:58:19;17.00;99.90
24103;DHT22;12278;53.058;9.028;2023-07-13T17:06:28;16.90;99.90
24103;DHT22;12278;53.058;9.028;2023-07-13T17:10:29;17.00;99.90
24103;DHT22;12278;53.058;9.028;2023-07-13T17:14:30;16.60;99.90
24103;DHT22;12278;53.058;9.028;2023-07-13T17:18:34;16.50;99.90
24103;DHT22;12278;53.058;9.028;2023-07-13T17:22:37;16.60;99.90
24103;DHT22;12278;53.058;9.028;2023-07-13T17:26:39;16.50;99.90
24103;DHT22;12278;53.058;9.028;2023-07-13T17:30:43;16.80;99.90
24103;DHT22;12278;53.058;9.028;2023-07-13T17:34:45;16.90;99.90
24103;DHT22;12278;53.058;9.028;2023-07-13T17:38:48;17.30;99.90
24103;DHT22;12278;53.058;9.028;2023-07-13T17:42:57;17.50;99.90
24103;DHT22;12278;53.058;9.028;2023-07-13T17:46:57;17.30;99.90
24103;DHT22;12278;53.058;9.028;2023-07-13T17:50:58;17.00;99.90
24103;DHT22;12278;53.058;9.028;2023-07-13T17:55:00;17.20;99.90
24103;DHT22;12278;53.058;9.028;2023-07-13T17:59:03;17.30;99.90
24103;DHT22;12278;53.058;9.028;2023-07-13T18:03:08;16.90;99.90
24103;DHT22;12278;53.058;9.028;2023-07-13T18:07:10;17.00;99.90
24103;DHT22;12278;53.058;9.028;2023-07-13T18:11:13;16.80;99.90
24103;DHT22;12278;53.058;9.028;2023-07-13T18:15:14;16.80;99.90
24103;DHT22;12278;53.058;9.028;2023-07-13T18:19:32;16.80;99.90
24103;DHT22;12278;53.058;9.028;2023-07-13T18:23:33;16.70;99.90
24103;DHT22;12278;53.058;9.028;2023-07-13T18:27:34;16.70;99.90
24103;DHT22;12278;53.058;9.028;2023-07-13T18:31:36;16.90;99.90
24103;DHT22;12278;53.058;9.028;2023-07-13T18:35:37;16.90;99.90
24103;DHT22;12278;53.058;9.028;2023-07-13T18:39:38;16.90;99.90
24103;DHT22;12278;53.058;9.028;2023-07-13T18:43:39;16.80;99.90
24103;DHT22;12278;53.058;9.028;2023-07-13T18:47:41;16.60;99.90
24103;DHT22;12278;53.058;9.028;2023-07-13T18:51:42;16.70;99.90
24103;DHT22;12278;53.058;9.028;2023-07-13T18:55:43;16.60;99.90
24103;DHT22;12278;53.058;9.028;2023-07-13T18:59:44;16.60;99.90
24103;DHT22;12278;53.058;9.028;2023-07-13T19:03:45;16.80;99.90
24103;DHT22;12278;53.058;9.028;2023-07-13T19:07:47;16.80;99.90
24103;DHT22;12278;53.058;9.028;2023-07-13T19:11:48;16.70;99.90
24103;DHT22;12278;53.058;9.028;2023-07-13T19:15:48;16.80;99.90
24103;DHT22;12278;53.058;9.028;2023-07-13T19:19:49;16.60;99.90
24103;DHT22;12278;53.058;9.028;2023-07-13T19:23:50;16.70;99.90
24103;DHT22;12278;53.058;9.028;2023-07-13T19:27:56;16.70;99.90
24103;DHT22;12278;53.058;9.028;2023-07-13T19:31:58;16.90;99.90
24103;DHT22;12278;53.058;9.028;2023-07-13T19:35:59;16.90;99.90
24103;DHT22;12278;53.058;9.028;2023-07-13T19:40:14;16.70;99.90
24103;DHT22;12278;53.058;9.028;2023-07-13T19:44:15;16.80;99.90
24103;DHT22;12278;53.058;9.028;2023-07-13T19:48:16;16.60;99.90
24103;DHT22;12278;53.058;9.028;2023-07-13T19:52:22;16.60;99.90
24103;DHT22;12278;53.058;9.028;2023-07-13T19:56:26;16.80;99.90
24103;DHT22;12278;53.058;9.028;2023-07-13T20:00:27;16.60;99.90
24103;DHT22;12278;53.058;9.028;2023-07-13T20:04:37;16.60;99.90
24103;DHT22;12278;53.058;9.028;2023-07-13T20:08:39;16.50;99.90
24103;DHT22;12278;53.058;9.028;2023-07-13T20:12:41;16.40;99.90
24103;DHT22;12278;53.058;9.028;2023-07-13T20:16:41;16.30;99.90
24103;DHT22;12278;53.058;9.028;2023-07-13T20:20:43;16.20;99.90
24103;DHT22;12278;53.058;9.028;2023-07-13T20:24:46;16.30;99.90
24103;DHT22;12278;53.058;9.028;2023-07-13T20:28:47;16.20;99.90
24103;DHT22;12278;53.058;9.028;2023-07-13T20:32:48;16.20;99.90
24103;DHT22;12278;53.058;9.028;2023-07-13T20:36:49;16.10;99.90
24103;DHT22;12278;53.058;9.028;2023-07-13T20:40:51;16.00;99.90
24103;DHT22;12278;53.058;9.028;2023-07-13T20:44:52;15.90;99.90
24103;DHT22;12278;53.058;9.028;2023-07-13T20:48:53;15.70;99.90
24103;DHT22;12278;53.058;9.028;2023-07-13T20:52:55;15.90;99.90
24103;DHT22;12278;53.058;9.028;2023-07-13T20:56:57;15.80;99.90
24103;DHT22;12278;53.058;9.028;2023-07-13T21:00:58;15.70;99.90
24103;DHT22;12278;53.058;9.028;2023-07-13T21:05:19;15.70;99.90
24103;DHT22;12278;53.058;9.028;2023-07-13T21:09:20;15.70;99.90
24103;DHT22;12278;53.058;9.028;2023-07-13T21:13:21;15.60;99.90
24103;DHT22;12278;53.058;9.028;2023-07-13T21:17:22;15.60;99.90
24103;DHT22;12278;53.058;9.028;2023-07-13T21:21:24;15.60;99.90
24103;DHT22;12278;53.058;9.028;2023-07-13T21:25:28;15.60;99.90
24103;DHT22;12278;53.058;9.028;2023-07-13T21:29:28;15.60;99.90
24103;DHT22;12278;53.058;9.028;2023-07-13T21:33:30;15.60;99.90
24103;DHT22;12278;53.058;9.028;2023-07-13T21:37:31;15.70;99.90
24103;DHT22;12278;53.058;9.028;2023-07-13T21:41:34;15.70;99.90
24103;DHT22;12278;53.058;9.028;2023-07-13T21:45:35;15.80;99.90
24103;DHT22;12278;53.058;9.028;2023-07-13T21:49:35;15.80;99.90
24103;DHT22;12278;53.058;9.028;2023-07-13T21:53:36;15.70;99.90
24103;DHT22;12278;53.058;9.028;2023-07-13T21:57:37;15.80;99.90
24103;DHT22;12278;53.058;9.028;2023-07-13T22:01:38;15.80;99.90
24103;DHT22;12278;53.058;9.028;2023-07-13T22:05:38;15.50;99.90
24103;DHT22;12278;53.058;9.028;2023-07-13T22:09:39;15.50;99.90
24103;DHT22;12278;53.058;9.028;2023-07-13T22:13:40;15.50;99.90
24103;DHT22;12278;53.058;9.028;2023-07-13T22:17:46;15.60;99.90
24103;DHT22;12278;53.058;9.028;2023-07-13T22:21:47;15.60;99.90
24103;DHT22;12278;53.058;9.028;2023-07-13T22:25:49;15.60;99.90
24103;DHT22;12278;53.058;9.028;2023-07-13T22:29:50;15.60;99.90
24103;DHT22;12278;53.058;9.028;2023-07-13T22:33:51;15.60;99.90
24103;DHT22;12278;53.058;9.028;2023-07-13T22:37:52;15.60;99.90
24103;DHT22;12278;53.058;9.028;2023-07-13T22:41:55;15.50;99.90
24103;DHT22;12278;53.058;9.028;2023-07-13T22:46:01;15.50;99.90
24103;DHT22;12278;53.058;9.028;2023-07-13T22:50:14;15.50;99.90
24103;DHT22;12278;53.058;9.028;2023-07-13T22:54:15;15.50;99.90
24103;DHT22;12278;53.058;9.028;2023-07-13T22:58:16;15.60;99.90
24103;DHT22;12278;53.058;9.028;2023-07-13T23:02:18;15.60;99.90
24103;DHT22;12278;53.058;9.028;2023-07-13T23:06:26;15.60;99.90
24103;DHT22;12278;53.058;9.028;2023-07-13T23:10:27;15.50;99.90
24103;DHT22;12278;53.058;9.028;2023-07-13T23:14:28;15.50;99.90
24103;DHT22;12278;53.058;9.028;2023-07-13T23:18:28;15.50;99.90
24103;DHT22;12278;53.058;9.028;2023-07-13T23:22:29;15.40;99.90
24103;DHT22;12278;53.058;9.028;2023-07-13T23:26:30;15.30;99.90
24103;DHT22;12278;53.058;9.028;2023-07-13T23:30:31;15.40;99.90
24103;DHT22;12278;53.058;9.028;2023-07-13T23:34:32;15.40;99.90
24103;DHT22;12278;53.058;9.028;2023-07-13T23:38:33;15.30;99.90
24103;DHT22;12278;53.058;9.028;2023-07-13T23:42:33;15.10;99.90
24103;DHT22;12278;53.058;9.028;2023-07-13T23:46:51;15.10;99.90
24103;DHT22;12278;53.058;9.028;2023-07-13T23:50:52;15.20;99.90
24103;DHT22;12278;53.058;9.028;2023-07-13T23:54:53;15.00;99.90
24103;DHT22;12278;53.058;9.028;2023-07-13T23:58:54;15.00;99.90
